Terminal Aerodrome Forecast
Issued by NWS Pocatello, ID

Home | Current Version | Previous Version | Text Only | Print | Product List | Glossary On
Versions: 1 2 3 4 5 6 7 8 9 10 11 12 13 14
000
FTUS45 KPIH 181124
TAFPIH
TAF
KPIH 181124Z 1812/1912 VRB03KT P6SM FEW050 BKN150
     FM181900 15012G22KT P6SM VCSH SCT050 OVC080
     FM190200 18010KT P6SM SCT070 BKN090
     FM191000 21015KT P6SM VCSH SCT040 BKN070=

USA.gov is the U.S. government's official web portal to all federal, state and local government web resources and services.